Time;durP1;ratioP1;P1;durP2;ratioP2;P2;SDS_P1;SDS_P2;PMS_P1;PMS_P2;Temp;Humidity;BMP_temperature;BMP_pressure;BME280_temperature;BME280_humidity;BME280_pressure;Samples;Min_cycle;Max_cycle;Signal;HPM_P1;HPM_P2
2023/04/24 00:02:13;;;;;;;1.48;1.30;;;12.10;1.00;;;;;;6183410;23;20190;-88
2023/04/24 00:04:44;;;;;;;1.20;1.00;;;12.10;1.00;;;;;;6183739;23;20165;-88
2023/04/24 00:07:10;;;;;;;1.30;1.20;;;12.00;1.00;;;;;;6183438;23;20155;-88
2023/04/24 00:09:38;;;;;;;1.42;1.10;;;12.10;1.00;;;;;;6183322;23;20686;-88
2023/04/24 00:12:04;;;;;;;1.73;1.20;;;12.00;1.00;;;;;;6183553;23;20190;-88
2023/04/24 00:14:31;;;;;;;1.55;1.15;;;12.00;1.00;;;;;;6183730;23;20659;-88
2023/04/24 00:16:57;;;;;;;1.10;1.05;;;12.30;1.00;;;;;;6185263;23;20162;-88
2023/04/24 00:19:29;;;;;;;2.72;1.23;;;12.00;1.00;;;;;;6183464;23;20190;-88
2023/04/24 00:21:55;;;;;;;1.48;1.10;;;12.10;1.00;;;;;;6183412;23;20635;-87
2023/04/24 00:24:21;;;;;;;1.35;1.00;;;12.10;1.00;;;;;;6183476;23;20159;-88
2023/04/24 00:26:47;;;;;;;1.73;1.08;;;12.10;1.00;;;;;;6183912;23;20474;-88
2023/04/24 00:29:12;;;;;;;1.20;1.10;;;13.00;1.00;;;;;;6183502;23;20159;-88
2023/04/24 00:31:38;;;;;;;1.10;1.00;;;12.10;1.00;;;;;;6183324;23;20769;-88
2023/04/24 00:34:04;;;;;;;1.30;1.20;;;12.00;1.00;;;;;;6183509;23;20182;-87
2023/04/24 00:36:31;;;;;;;1.45;1.35;;;11.90;1.00;;;;;;6183584;23;20277;-88
2023/04/24 00:38:57;;;;;;;1.25;1.13;;;11.80;1.00;;;;;;6183635;23;20162;-88
2023/04/24 00:41:24;;;;;;;1.27;1.17;;;11.90;1.00;;;;;;6183272;23;20626;-87
2023/04/24 00:43:50;;;;;;;2.13;1.15;;;12.90;1.00;;;;;;6183556;23;20155;-89
2023/04/24 00:46:16;;;;;;;1.02;1.00;;;12.00;1.00;;;;;;6183672;23;20159;-89
2023/04/24 00:48:43;;;;;;;1.00;0.90;;;12.00;1.00;;;;;;6183509;23;20589;-89
2023/04/24 00:51:09;;;;;;;1.55;1.20;;;12.00;1.00;;;;;;6183251;23;20633;-88
2023/04/24 00:53:34;;;;;;;2.17;1.10;;;12.00;1.00;;;;;;6183367;23;20162;-88
2023/04/24 00:56:01;;;;;;;1.23;0.90;;;12.00;1.00;;;;;;6183254;23;20534;-88
2023/04/24 00:58:27;;;;;;;1.57;0.90;;;12.00;1.00;;;;;;6183539;23;20163;-88
2023/04/24 01:00:53;;;;;;;1.27;1.08;;;11.90;1.00;;;;;;6183280;23;20182;-89
2023/04/24 01:03:26;;;;;;;0.88;0.80;;;11.80;1.00;;;;;;6183184;23;20190;-89
2023/04/24 01:05:54;;;;;;;2.17;1.10;;;12.50;1.00;;;;;;6183291;23;20156;-89
2023/04/24 01:08:20;;;;;;;1.10;1.02;;;11.90;1.00;;;;;;6183481;23;20155;-89
2023/04/24 01:10:47;;;;;;;1.83;0.90;;;11.90;1.00;;;;;;6183012;23;20186;-88
2023/04/24 01:13:13;;;;;;;2.20;0.90;;;11.80;1.00;;;;;;6183403;23;20484;-88
2023/04/24 01:15:39;;;;;;;2.23;0.93;;;11.80;1.00;;;;;;6183278;23;20165;-88
2023/04/24 01:18:04;;;;;;;0.80;0.80;;;11.80;1.00;;;;;;6183210;23;20507;-88
2023/04/24 01:20:39;;;;;;;1.20;1.02;;;11.80;1.00;;;;;;6183272;23;20170;-88
2023/04/24 01:23:06;;;;;;;1.07;1.00;;;11.80;1.00;;;;;;6184633;23;20189;-88
2023/04/24 01:25:32;;;;;;;2.50;1.10;;;11.80;1.00;;;;;;6185005;23;20162;-89
2023/04/24 01:27:58;;;;;;;3.27;1.17;;;11.80;1.00;;;;;;6185030;23;20159;-88
2023/04/24 01:30:25;;;;;;;1.33;0.97;;;11.80;1.00;;;;;;6186491;23;20230;-88
2023/04/24 01:32:51;;;;;;;0.90;0.90;;;11.70;1.00;;;;;;6189710;23;20233;-88
2023/04/24 01:35:17;;;;;;;1.85;1.08;;;11.60;1.00;;;;;;6189805;23;20170;-88
2023/04/24 01:37:43;;;;;;;1.30;0.80;;;11.60;1.00;;;;;;6190093;23;20162;-89
2023/04/24 01:40:09;;;;;;;1.43;0.80;;;11.60;1.00;;;;;;6190020;23;20208;-89
2023/04/24 01:42:35;;;;;;;0.82;0.80;;;11.60;1.00;;;;;;6189624;23;20236;-89
2023/04/24 01:45:03;;;;;;;1.27;0.80;;;11.50;1.00;;;;;;6189718;23;20538;-89
2023/04/24 01:47:30;;;;;;;2.90;1.35;;;11.40;1.00;;;;;;6216272;23;20173;-88
2023/04/24 01:49:55;;;;;;;1.07;0.97;;;11.40;1.00;;;;;;6189651;23;20166;-88
2023/04/24 01:52:21;;;;;;;1.20;1.10;;;11.30;1.00;;;;;;6189533;23;20611;-89
2023/04/24 01:54:47;;;;;;;0.90;0.90;;;11.20;1.00;;;;;;6189735;23;20162;-89
2023/04/24 01:57:14;;;;;;;1.80;1.00;;;11.20;1.00;;;;;;6189668;23;20162;-88
2023/04/24 01:59:40;;;;;;;1.67;1.10;;;11.10;1.00;;;;;;6189764;23;20170;-88
2023/04/24 02:02:06;;;;;;;1.10;1.00;;;11.10;1.00;;;;;;6189620;23;20186;-88
2023/04/24 02:04:31;;;;;;;1.00;0.90;;;11.10;1.00;;;;;;6190103;23;20181;-88
2023/04/24 02:06:57;;;;;;;1.80;1.00;;;11.10;1.00;;;;;;6189593;23;20162;-88
2023/04/24 02:09:23;;;;;;;2.23;1.20;;;11.10;1.00;;;;;;6189733;23;20166;-88
2023/04/24 02:11:48;;;;;;;1.13;1.07;;;11.10;1.00;;;;;;6189486;23;20186;-88
2023/04/24 02:14:14;;;;;;;1.73;1.10;;;11.00;1.00;;;;;;6189714;23;20159;-89
2023/04/24 02:16:40;;;;;;;1.77;1.00;;;11.00;1.00;;;;;;6189839;23;20189;-88
2023/04/24 02:19:05;;;;;;;2.30;1.00;;;11.00;1.00;;;;;;6189880;23;20176;-88
2023/04/24 02:21:31;;;;;;;1.63;1.10;;;11.00;1.00;;;;;;6189221;23;20217;-88
2023/04/24 02:23:57;;;;;;;1.13;0.80;;;10.90;1.70;;;;;;6189415;23;20163;-88
2023/04/24 02:26:23;;;;;;;1.60;0.87;;;10.90;8.70;;;;;;6189208;23;20174;-88
2023/04/24 02:28:48;;;;;;;1.53;0.90;;;10.90;9.70;;;;;;6216136;23;20147;-89
2023/04/24 02:31:14;;;;;;;2.03;0.93;;;11.00;3.60;;;;;;6189268;23;20189;-89
2023/04/24 02:33:40;;;;;;;0.93;0.90;;;11.00;1.00;;;;;;6188985;23;20531;-88
2023/04/24 02:36:05;;;;;;;1.03;0.70;;;11.00;1.00;;;;;;6189283;23;20161;-88
2023/04/24 02:38:31;;;;;;;2.00;1.10;;;10.90;1.00;;;;;;6189731;23;20151;-89
2023/04/24 02:40:56;;;;;;;1.97;1.00;;;10.90;1.50;;;;;;6189288;23;20154;-88
2023/04/24 02:43:22;;;;;;;1.00;0.90;;;10.80;2.00;;;;;;6189416;23;20158;-87
2023/04/24 02:45:48;;;;;;;0.70;0.70;;;10.80;8.20;;;;;;6189650;23;20154;-88
2023/04/24 02:48:14;;;;;;;1.00;0.90;;;10.80;1.00;;;;;;6189260;23;20162;-88
2023/04/24 02:50:40;;;;;;;1.50;0.83;;;10.70;1.00;;;;;;6189220;23;20483;-88
2023/04/24 02:53:05;;;;;;;1.40;1.00;;;10.70;3.60;;;;;;6189484;23;20499;-87
2023/04/24 02:55:31;;;;;;;2.47;0.80;;;10.60;2.50;;;;;;6189395;23;20159;-88
2023/04/24 02:57:57;;;;;;;1.63;0.90;;;10.60;1.00;;;;;;6189210;23;20151;-87
2023/04/24 03:00:22;;;;;;;0.90;0.90;;;10.70;4.20;;;;;;6189169;23;20158;-88
2023/04/24 03:02:49;;;;;;;3.27;1.00;;;10.70;1.00;;;;;;6189254;23;20629;-89
2023/04/24 03:05:15;;;;;;;0.70;0.70;;;10.70;3.10;;;;;;6189143;23;20158;-88
2023/04/24 03:07:41;;;;;;;1.27;0.90;;;10.50;1.00;;;;;;6187994;23;20497;-88
2023/04/24 03:10:07;;;;;;;0.80;0.80;;;10.50;5.60;;;;;;6189249;23;20240;-88
2023/04/24 03:12:32;;;;;;;1.90;0.80;;;10.50;6.10;;;;;;6189106;23;20193;-88
2023/04/24 03:14:58;;;;;;;1.93;0.80;;;10.50;2.70;;;;;;6189153;23;20194;-88
2023/04/24 03:17:24;;;;;;;1.33;0.60;;;10.40;5.10;;;;;;6189221;23;20165;-88
2023/04/24 03:19:49;;;;;;;1.23;0.90;;;10.50;1.00;;;;;;6188965;23;20162;-88
2023/04/24 03:22:15;;;;;;;0.70;0.70;;;10.40;1.00;;;;;;6189188;23;20642;-87
2023/04/24 03:24:41;;;;;;;0.80;0.80;;;10.30;1.00;;;;;;6215563;23;20253;-88
2023/04/24 03:27:06;;;;;;;2.33;0.73;;;10.30;1.00;;;;;;6189046;23;20161;-87
2023/04/24 03:29:34;;;;;;;1.03;0.80;;;10.30;3.00;;;;;;6189225;23;20189;-89
2023/04/24 03:31:59;;;;;;;1.53;0.50;;;10.40;1.00;;;;;;6188823;23;20220;-88
2023/04/24 03:34:25;;;;;;;0.90;0.70;;;10.40;1.00;;;;;;6215469;23;20146;-88
2023/04/24 03:36:50;;;;;;;1.17;0.60;;;10.40;1.00;;;;;;6215556;23;20158;-88
2023/04/24 03:39:16;;;;;;;1.73;0.60;;;10.50;1.00;;;;;;6188768;23;20513;-88
2023/04/24 03:41:41;;;;;;;0.70;0.70;;;10.60;1.00;;;;;;6188745;23;20184;-88
2023/04/24 03:44:07;;;;;;;0.60;0.60;;;10.70;1.00;;;;;;6188930;23;20181;-88
2023/04/24 03:46:33;;;;;;;0.67;0.67;;;10.70;1.00;;;;;;6188842;23;20599;-89
2023/04/24 03:48:58;;;;;;;0.60;0.60;;;10.80;1.00;;;;;;6189007;23;20642;-88
2023/04/24 03:51:24;;;;;;;1.10;0.70;;;10.80;1.00;;;;;;6188868;23;20265;-88
2023/04/24 03:53:49;;;;;;;1.00;0.70;;;10.80;1.00;;;;;;6188764;23;20181;-87
2023/04/24 03:56:15;;;;;;;0.70;0.60;;;10.80;1.00;;;;;;6215421;23;20196;-88
2023/04/24 03:58:40;;;;;;;1.17;0.70;;;10.80;1.00;;;;;;6188687;23;20158;-88
2023/04/24 04:01:07;;;;;;;0.63;0.60;;;10.80;1.00;;;;;;6188470;23;20182;-88
2023/04/24 04:03:33;;;;;;;1.27;0.60;;;10.70;1.00;;;;;;6188423;23;20557;-88
2023/04/24 04:05:58;;;;;;;1.00;0.70;;;10.70;1.00;;;;;;6188627;23;20158;-88
2023/04/24 04:08:24;;;;;;;1.13;0.87;;;10.70;1.00;;;;;;6188736;23;20284;-88
2023/04/24 04:10:49;;;;;;;0.80;0.60;;;10.70;1.00;;;;;;6188424;23;20154;-89
2023/04/24 04:13:15;;;;;;;0.90;0.63;;;10.70;1.00;;;;;;6188639;23;20159;-88
2023/04/24 04:15:41;;;;;;;0.60;0.60;;;10.60;1.00;;;;;;6188585;23;20167;-88
2023/04/24 04:18:06;;;;;;;0.90;0.80;;;10.60;1.00;;;;;;6188448;23;20162;-87
2023/04/24 04:20:32;;;;;;;0.57;0.57;;;10.60;1.00;;;;;;6188599;23;20162;-88
2023/04/24 04:22:57;;;;;;;1.57;0.60;;;10.60;1.00;;;;;;6188344;23;20182;-88
2023/04/24 04:25:23;;;;;;;1.60;0.70;;;10.60;1.00;;;;;;6188566;23;20154;-88
2023/04/24 04:27:48;;;;;;;0.83;0.80;;;10.60;1.00;;;;;;6188382;23;20150;-88
2023/04/24 04:30:14;;;;;;;1.10;0.70;;;10.60;1.00;;;;;;6188321;23;20158;-88
2023/04/24 04:32:40;;;;;;;1.33;0.60;;;10.70;1.00;;;;;;6188549;23;20301;-88
2023/04/24 04:35:06;;;;;;;2.33;0.70;;;10.70;1.00;;;;;;6188524;23;20158;-89
2023/04/24 04:37:35;;;;;;;1.80;0.60;;;10.80;1.00;;;;;;6188442;23;20158;-87
2023/04/24 04:40:06;;;;;;;0.60;0.60;;;10.80;1.00;;;;;;6188497;23;20193;-88
2023/04/24 04:42:33;;;;;;;1.83;0.80;;;10.80;1.00;;;;;;6188251;23;20309;-88
2023/04/24 04:45:00;;;;;;;1.27;0.70;;;10.80;1.00;;;;;;6188006;23;20158;-90
2023/04/24 04:47:28;;;;;;;1.90;0.70;;;10.90;1.00;;;;;;6188146;23;20587;-89
2023/04/24 04:49:53;;;;;;;1.50;0.87;;;10.80;1.00;;;;;;6188522;23;20228;-88
2023/04/24 04:52:19;;;;;;;1.10;0.70;;;10.80;1.00;;;;;;6188295;23;20618;-88
2023/04/24 04:54:46;;;;;;;0.67;0.60;;;10.80;1.00;;;;;;6188651;23;20441;-87
2023/04/24 04:57:11;;;;;;;1.30;0.70;;;10.80;1.00;;;;;;6189551;23;20162;-88
2023/04/24 04:59:37;;;;;;;1.13;0.57;;;10.90;1.00;;;;;;6190766;23;20328;-88
2023/04/24 05:02:03;;;;;;;0.60;0.60;;;10.90;1.00;;;;;;6190448;23;20272;-88
2023/04/24 05:04:28;;;;;;;0.83;0.60;;;10.80;1.00;;;;;;6190609;23;20159;-88
2023/04/24 05:06:54;;;;;;;0.73;0.60;;;10.90;1.00;;;;;;6190314;23;20150;-88
2023/04/24 05:09:19;;;;;;;1.77;0.80;;;10.90;1.00;;;;;;6216971;23;20146;-88
2023/04/24 05:11:45;;;;;;;0.90;0.60;;;10.90;1.00;;;;;;6216607;23;20212;-88
2023/04/24 05:14:12;;;;;;;0.50;0.50;;;10.90;1.00;;;;;;6190390;23;20166;-88
2023/04/24 05:16:38;;;;;;;0.73;0.70;;;10.90;1.00;;;;;;6190312;23;20568;-88
2023/04/24 05:19:05;;;;;;;1.30;0.73;;;11.00;1.00;;;;;;6190268;23;20494;-88
2023/04/24 05:21:31;;;;;;;1.17;0.70;;;11.00;1.00;;;;;;6190626;23;20574;-88
2023/04/24 05:23:56;;;;;;;1.20;0.90;;;11.10;1.00;;;;;;6190544;23;20181;-88
2023/04/24 05:26:23;;;;;;;1.10;0.63;;;11.20;1.00;;;;;;6190306;23;20394;-88
2023/04/24 05:28:49;;;;;;;1.67;0.70;;;11.30;1.00;;;;;;6190278;23;20162;-88
2023/04/24 05:31:15;;;;;;;0.57;0.50;;;11.60;1.00;;;;;;6190068;23;20186;-89
2023/04/24 05:33:40;;;;;;;0.50;0.50;;;11.30;1.00;;;;;;6190624;23;20300;-87
2023/04/24 05:36:06;;;;;;;1.33;0.70;;;11.20;1.00;;;;;;6190452;23;20709;-88
2023/04/24 05:38:32;;;;;;;2.10;0.70;;;11.30;1.00;;;;;;6190232;23;20182;-88
2023/04/24 05:40:57;;;;;;;1.77;0.70;;;11.20;1.00;;;;;;6190195;23;20225;-88
2023/04/24 05:43:23;;;;;;;1.10;0.73;;;11.30;1.00;;;;;;6190449;23;20182;-88
2023/04/24 05:45:49;;;;;;;1.43;0.80;;;11.40;1.00;;;;;;6190177;23;20634;-87
2023/04/24 05:48:14;;;;;;;0.83;0.60;;;11.50;1.00;;;;;;6190395;23;20826;-87
2023/04/24 05:50:41;;;;;;;0.85;0.60;;;11.60;1.00;;;;;;6190416;23;20155;-88
2023/04/24 05:53:07;;;;;;;2.60;1.00;;;12.10;1.00;;;;;;6165364;23;20619;-88
2023/04/24 05:55:32;;;;;;;0.80;0.80;;;11.70;1.00;;;;;;6190391;23;20154;-89
2023/04/24 05:57:58;;;;;;;1.60;0.80;;;11.70;1.00;;;;;;6190240;23;20214;-89
2023/04/24 06:00:24;;;;;;;0.70;0.70;;;11.80;1.00;;;;;;6190311;23;20503;-89
2023/04/24 06:02:50;;;;;;;1.92;0.70;;;11.80;1.00;;;;;;6190098;23;20240;-89
2023/04/24 06:05:15;;;;;;;0.82;0.80;;;11.80;1.00;;;;;;6190566;23;20229;-89
2023/04/24 06:07:41;;;;;;;2.30;1.17;;;11.90;1.00;;;;;;6189979;23;20155;-89
2023/04/24 06:10:07;;;;;;;0.80;0.80;;;11.90;1.00;;;;;;6190071;23;20205;-88
2023/04/24 06:12:33;;;;;;;0.93;0.80;;;11.90;1.00;;;;;;6190248;23;20186;-88
2023/04/24 06:14:58;;;;;;;1.30;0.80;;;11.90;1.00;;;;;;6189944;23;20162;-89
2023/04/24 06:17:24;;;;;;;1.55;1.00;;;11.80;1.00;;;;;;6190356;23;20599;-89
2023/04/24 06:19:49;;;;;;;1.20;0.80;;;11.90;1.00;;;;;;6190141;23;20492;-89
2023/04/24 06:22:15;;;;;;;1.58;1.15;;;12.10;1.00;;;;;;6189798;23;20206;-89
2023/04/24 06:24:41;;;;;;;4.72;1.15;;;12.50;1.00;;;;;;6189918;23;20154;-89
2023/04/24 06:27:07;;;;;;;1.63;1.15;;;12.60;1.00;;;;;;6190003;23;20162;-88
2023/04/24 06:29:33;;;;;;;0.95;0.90;;;12.50;1.00;;;;;;6190107;23;20162;-88
2023/04/24 06:31:59;;;;;;;1.83;1.10;;;13.30;1.00;;;;;;6189216;23;20228;-87
2023/04/24 06:34:24;;;;;;;2.58;1.00;;;12.40;1.00;;;;;;6190829;23;20594;-89
2023/04/24 06:36:50;;;;;;;1.58;0.95;;;13.30;1.00;;;;;;6186723;23;20162;-88
2023/04/24 06:39:16;;;;;;;1.50;0.95;;;12.50;1.00;;;;;;6184313;23;20159;-89
2023/04/24 06:41:41;;;;;;;1.45;1.00;;;12.60;1.00;;;;;;6211364;23;20174;-88
2023/04/24 06:44:08;;;;;;;2.45;0.90;;;12.80;1.00;;;;;;6210676;23;20634;-90
2023/04/24 06:46:45;;;;;;;1.73;0.85;;;12.90;1.00;;;;;;6183742;23;20158;-89
2023/04/24 06:49:10;;;;;;;0.90;0.90;;;13.60;1.00;;;;;;6213404;23;20571;-90
2023/04/24 06:51:36;;;;;;;1.60;0.93;;;13.10;1.00;;;;;;6187995;23;20181;-90
2023/04/24 06:54:02;;;;;;;2.35;1.05;;;13.00;1.00;;;;;;6189046;23;20162;-89
2023/04/24 06:56:29;;;;;;;2.55;1.00;;;13.00;1.00;;;;;;6185108;23;20172;-89
2023/04/24 06:58:54;;;;;;;1.48;1.00;;;12.90;1.00;;;;;;6211504;23;20180;-88
2023/04/24 07:01:20;;;;;;;1.55;0.90;;;12.80;1.00;;;;;;6185694;23;20670;-88
2023/04/24 07:03:46;;;;;;;1.10;0.85;;;13.00;1.00;;;;;;6192360;23;20529;-88
2023/04/24 07:06:23;;;;;;;1.83;0.70;;;13.50;1.00;;;;;;6191608;23;20285;-88
2023/04/24 07:08:49;;;;;;;1.10;0.85;;;13.40;1.00;;;;;;6217613;23;20213;-88
2023/04/24 07:11:14;;;;;;;4.05;1.40;;;13.40;1.00;;;;;;6189972;23;20224;-89
2023/04/24 07:13:41;;;;;;;1.02;0.60;;;13.50;1.00;;;;;;6190288;23;20161;-89
2023/04/24 07:16:08;;;;;;;6.18;0.98;;;13.40;1.00;;;;;;6190944;23;20208;-89
2023/04/24 07:18:36;;;;;;;0.57;0.50;;;13.40;1.00;;;;;;6192649;23;20169;-88
2023/04/24 07:21:17;;;;;;;1.55;0.60;;;13.80;1.00;;;;;;6191635;23;20155;-87
2023/04/24 07:23:42;;;;;;;1.08;0.70;;;14.00;1.00;;;;;;6191658;23;20241;-88
2023/04/24 07:26:08;;;;;;;1.40;0.70;;;13.60;1.00;;;;;;6191055;23;20698;-88
2023/04/24 07:28:47;;;;;;;1.33;0.75;;;13.40;1.00;;;;;;6189533;23;20155;-89
2023/04/24 07:31:17;;;;;;;1.13;0.57;;;14.00;1.00;;;;;;6190940;23;20190;-89
2023/04/24 07:33:43;;;;;;;0.98;0.70;;;13.30;1.00;;;;;;6165175;23;20186;-89
2023/04/24 07:36:15;;;;;;;1.25;0.85;;;13.30;1.00;;;;;;6189676;23;20154;-90
2023/04/24 07:38:41;;;;;;;0.65;0.40;;;13.10;1.00;;;;;;6189646;23;20154;-90
2023/04/24 07:41:06;;;;;;;1.05;0.50;;;13.00;1.00;;;;;;6189494;23;20244;-90
2023/04/24 07:43:32;;;;;;;0.60;0.60;;;13.10;1.00;;;;;;6188436;23;20271;-90
2023/04/24 07:45:58;;;;;;;0.75;0.70;;;13.40;1.00;;;;;;6186082;23;20163;-90
2023/04/24 07:48:26;;;;;;;1.98;1.25;;;13.10;1.00;;;;;;6185344;23;20245;-90
2023/04/24 07:50:52;;;;;;;2.05;1.00;;;12.50;1.00;;;;;;6187247;23;20158;-90
2023/04/24 07:53:19;;;;;;;1.05;0.82;;;12.20;1.00;;;;;;6187975;23;20188;-91
2023/04/24 07:56:08;;;;;;;1.73;1.10;;;12.30;1.00;;;;;;6188021;23;20162;-90
2023/04/24 07:58:34;;;;;;;1.23;1.20;;;12.20;1.00;;;;;;6188463;23;20233;-91
2023/04/24 08:01:00;;;;;;;2.60;1.67;;;12.60;1.00;;;;;;6187010;23;20629;-91
2023/04/24 08:03:28;;;;;;;1.63;1.13;;;12.10;1.00;;;;;;6214219;23;20186;-90
2023/04/24 08:05:54;;;;;;;1.63;1.30;;;12.00;1.00;;;;;;6187958;23;20158;-90
2023/04/24 08:08:23;;;;;;;1.42;1.13;;;11.90;1.00;;;;;;6188282;23;20228;-93
2023/04/24 08:11:08;;;;;;;1.23;1.10;;;11.90;1.00;;;;;;6182914;23;20158;-90
2023/04/24 08:13:37;;;;;;;1.70;1.30;;;13.00;1.00;;;;;;6159991;23;20162;-90
2023/04/24 08:20:00;;;;;;;2.63;1.63;;;12.50;1.00;;;;;;6180353;23;20204;-91
2023/04/24 08:22:34;;;;;;;1.40;1.30;;;12.50;1.00;;;;;;6188557;23;20186;-85
2023/04/24 08:25:07;;;;;;;1.63;1.50;;;12.10;1.00;;;;;;6181264;23;20236;-90
2023/04/24 08:27:32;;;;;;;1.73;1.63;;;12.40;1.00;;;;;;6180791;23;20159;-87
2023/04/24 08:29:59;;;;;;;1.50;1.40;;;12.50;1.00;;;;;;6181188;23;20190;-88
2023/04/24 08:32:28;;;;;;;1.88;1.67;;;12.70;1.00;;;;;;6180730;23;20197;-87
2023/04/24 08:34:56;;;;;;;1.77;1.52;;;13.00;1.00;;;;;;6180846;23;20170;-88
2023/04/24 08:37:22;;;;;;;2.33;2.13;;;13.50;1.00;;;;;;6181158;23;20162;-89
2023/04/24 08:39:49;;;;;;;2.00;1.90;;;13.10;1.00;;;;;;6207522;23;20243;-89
2023/04/24 08:42:16;;;;;;;2.03;1.85;;;13.10;1.00;;;;;;6181795;23;20269;-88
2023/04/24 08:44:42;;;;;;;2.13;1.60;;;13.10;1.00;;;;;;6207948;23;20158;-88
2023/04/24 08:47:10;;;;;;;1.90;1.80;;;12.90;1.00;;;;;;6209100;23;20590;-88
2023/04/24 08:49:37;;;;;;;1.95;1.85;;;13.20;1.00;;;;;;6181139;23;20158;-87
2023/04/24 08:52:04;;;;;;;4.22;1.90;;;13.00;1.00;;;;;;6181704;23;20189;-91
2023/04/24 08:54:31;;;;;;;2.05;1.95;;;13.00;1.00;;;;;;6208897;23;20649;-86
2023/04/24 08:57:01;;;;;;;2.65;2.10;;;13.10;1.00;;;;;;6166939;23;20173;-90
2023/04/24 09:00:07;;;;;;;2.88;1.85;;;13.20;1.00;;;;;;6213049;23;20178;-90
2023/04/24 11:42:51;;;;;;;1.77;1.23;;;14.20;1.00;;;;;;6193164;22;20214;-88
2023/04/24 11:45:28;;;;;;;1.30;1.20;;;14.20;1.00;;;;;;6176823;23;20213;-87
2023/04/24 11:47:54;;;;;;;1.42;0.95;;;14.20;1.00;;;;;;6176440;23;20155;-88
2023/04/24 11:50:22;;;;;;;1.17;0.90;;;14.30;1.00;;;;;;6176733;23;20213;-88
2023/04/24 11:52:50;;;;;;;1.23;1.05;;;14.40;1.00;;;;;;6176938;23;20183;-88
2023/04/24 11:55:15;;;;;;;4.90;1.40;;;14.40;1.00;;;;;;6177137;23;20174;-88
2023/04/24 11:57:53;;;;;;;1.30;1.20;;;14.40;1.00;;;;;;6176755;23;20159;-88
2023/04/24 12:00:30;;;;;;;1.40;1.00;;;14.10;1.00;;;;;;6177265;23;20600;-88
2023/04/24 12:03:16;;;;;;;1.20;1.10;;;13.90;1.00;;;;;;6176677;23;20256;-88
2023/04/24 12:05:43;;;;;;;6.78;2.30;;;13.90;1.00;;;;;;6175400;23;20161;-88
2023/04/24 12:08:09;;;;;;;7.38;1.85;;;14.20;1.00;;;;;;6176803;23;20182;-87
2023/04/24 12:10:40;;;;;;;8.02;1.70;;;14.70;1.00;;;;;;6176728;23;20209;-87
2023/04/24 12:13:11;;;;;;;8.75;1.98;;;15.30;1.00;;;;;;6174921;23;20179;-87
2023/04/24 12:15:41;;;;;;;3.13;1.83;;;15.20;1.00;;;;;;6177624;23;20601;-87
2023/04/24 12:18:12;;;;;;;3.78;1.60;;;15.50;1.00;;;;;;6177888;23;20606;-87
2023/04/24 12:20:38;;;;;;;7.07;1.65;;;15.00;1.00;;;;;;6177248;23;20208;-88
2023/04/24 12:23:05;;;;;;;11.88;2.47;;;14.90;1.00;;;;;;6176408;23;20194;-88
2023/04/24 12:25:48;;;;;;;15.38;3.78;;;14.90;1.00;;;;;;6176905;23;20262;-88
2023/04/24 12:28:17;;;;;;;17.48;2.30;;;15.10;1.00;;;;;;6176898;23;20170;-89
2023/04/24 12:33:36;;;;;;;3.65;1.77;;;15.40;1.00;;;;;;6178874;22;20222;-87
2023/04/24 12:36:49;;;;;;;10.95;1.70;;;14.70;1.00;;;;;;6176889;23;20155;-88
2023/04/24 12:40:00;;;;;;;2.78;1.30;;;14.50;1.00;;;;;;6144461;23;20283;-88
2023/04/24 12:42:30;;;;;;;1.58;1.10;;;15.00;1.00;;;;;;6173015;23;20198;-88
2023/04/24 12:45:06;;;;;;;1.77;1.27;;;14.90;1.00;;;;;;6178432;23;20154;-88
2023/04/24 12:47:39;;;;;;;1.55;1.40;;;16.00;1.00;;;;;;6177027;23;20154;-87
2023/04/24 12:50:41;;;;;;;2.55;1.30;;;14.90;1.00;;;;;;6182035;23;20151;-89
2023/04/24 12:53:08;;;;;;;1.52;1.30;;;14.70;1.00;;;;;;6183370;23;20238;-88
2023/04/24 12:55:52;;;;;;;1.92;1.30;;;14.50;1.00;;;;;;6183800;23;20155;-88
2023/04/24 12:58:21;;;;;;;5.32;1.70;;;15.30;1.00;;;;;;6183901;23;20151;-90
2023/04/24 13:00:48;;;;;;;18.77;3.22;;;14.50;1.00;;;;;;6183985;23;20170;-89
2023/04/24 13:03:18;;;;;;;16.42;2.13;;;13.70;1.00;;;;;;6185286;23;20217;-88
2023/04/24 13:05:44;;;;;;;9.68;1.70;;;13.50;1.00;;;;;;6182411;23;20495;-89
2023/04/24 13:08:18;;;;;;;3.65;1.00;;;14.60;1.00;;;;;;6178280;23;20159;-88
2023/04/24 13:10:47;;;;;;;3.00;1.00;;;13.90;1.00;;;;;;6180741;23;20138;-88
2023/04/24 13:14:01;;;;;;;6.07;1.20;;;13.60;1.00;;;;;;6189834;23;20179;-89
2023/04/24 13:17:03;;;;;;;4.53;1.35;;;13.70;1.00;;;;;;6185659;23;20174;-90
2023/04/24 13:19:42;;;;;;;11.77;1.33;;;13.70;1.00;;;;;;6183686;23;20169;-91
2023/04/24 13:22:10;;;;;;;3.70;0.98;;;13.60;1.00;;;;;;6183469;23;20509;-90
2023/04/24 13:24:49;;;;;;;2.83;0.60;;;14.40;1.00;;;;;;6182532;23;20621;-89
2023/04/24 13:27:15;;;;;;;0.30;0.30;;;14.20;1.00;;;;;;6181965;23;20592;-90
2023/04/24 13:29:43;;;;;;;0.60;0.60;;;13.70;1.00;;;;;;6180576;23;20155;-89
2023/04/24 13:32:12;;;;;;;1.30;0.40;;;13.00;1.00;;;;;;6186740;23;20186;-88
2023/04/24 13:34:38;;;;;;;0.93;0.40;;;13.50;1.00;;;;;;6186145;23;20154;-86
2023/04/24 13:37:04;;;;;;;2.33;0.73;;;13.40;1.00;;;;;;6186035;23;20205;-89
2023/04/24 13:39:30;;;;;;;0.47;0.40;;;14.00;1.00;;;;;;6161100;23;20173;-87
2023/04/24 13:41:56;;;;;;;0.65;0.60;;;13.90;1.00;;;;;;6187663;23;20265;-87
2023/04/24 13:44:23;;;;;;;0.40;0.40;;;13.10;1.00;;;;;;6188240;23;20197;-87
2023/04/24 13:46:51;;;;;;;1.50;0.40;;;13.40;1.00;;;;;;6187568;23;20213;-87
2023/04/24 13:49:17;;;;;;;0.40;0.40;;;13.70;1.00;;;;;;6188088;23;20162;-87
2023/04/24 13:51:44;;;;;;;1.58;0.40;;;13.30;1.00;;;;;;6186542;23;20320;-88
2023/04/24 13:54:09;;;;;;;0.50;0.50;;;12.80;1.00;;;;;;6187549;23;20165;-86
2023/04/24 13:56:39;;;;;;;0.80;0.80;;;13.20;1.00;;;;;;6214167;23;20162;-87
2023/04/24 13:59:06;;;;;;;1.30;1.20;;;12.30;1.00;;;;;;6187489;23;20185;-87
2023/04/24 14:01:32;;;;;;;1.42;1.30;;;12.50;1.00;;;;;;6188120;23;20525;-88
2023/04/24 14:03:57;;;;;;;1.45;1.23;;;12.50;1.00;;;;;;6215209;23;20139;-87
2023/04/24 14:06:31;;;;;;;2.15;1.00;;;12.40;1.00;;;;;;6164420;23;20158;-89
2023/04/24 14:08:56;;;;;;;0.95;0.90;;;12.40;1.00;;;;;;6189501;23;20262;-88
2023/04/24 14:11:22;;;;;;;0.70;0.70;;;12.40;1.00;;;;;;6189596;23;20602;-87
2023/04/24 14:13:47;;;;;;;1.42;0.65;;;12.30;1.00;;;;;;6189876;23;20150;-88
2023/04/24 14:16:16;;;;;;;1.05;0.70;;;12.20;1.00;;;;;;6188957;23;20154;-90
2023/04/24 14:18:42;;;;;;;1.58;0.40;;;12.20;1.00;;;;;;6188939;23;20155;-86
2023/04/24 14:21:07;;;;;;;0.40;0.40;;;12.10;1.00;;;;;;6184699;23;20463;-87
2023/04/24 14:23:33;;;;;;;0.32;0.32;;;12.00;1.00;;;;;;6182754;23;20182;-86
2023/04/24 14:25:59;;;;;;;0.57;0.40;;;12.00;1.00;;;;;;6182006;23;20178;-90
2023/04/24 14:28:26;;;;;;;1.60;0.50;;;11.80;1.00;;;;;;6184624;23;20713;-91
2023/04/24 14:30:55;;;;;;;0.73;0.43;;;11.50;1.00;;;;;;6188870;23;20162;-91
2023/04/24 14:33:21;;;;;;;1.50;0.40;;;12.10;1.00;;;;;;6190139;23;20181;-90
2023/04/24 14:36:54;;;;;;;0.63;0.50;;;11.40;1.00;;;;;;6191026;23;20197;-92
2023/04/24 14:39:57;;;;;;;1.70;0.50;;;11.40;1.00;;;;;;6204684;23;20162;-90
2023/04/24 14:42:24;;;;;;;1.30;0.40;;;12.20;1.00;;;;;;6190836;23;20185;-91
2023/04/24 14:44:50;;;;;;;0.70;0.30;;;11.50;1.00;;;;;;6193654;23;20445;-92
2023/04/24 14:51:05;;;;;;;0.30;0.30;;;11.10;1.00;;;;;;6223710;23;20138;-91
2023/04/24 14:53:42;;;;;;;1.33;0.30;;;11.00;1.00;;;;;;6214179;23;20163;-92
2023/04/24 15:00:46;;;;;;;0.60;0.40;;;9.90;1.00;;;;;;6222251;23;20212;-91
2023/04/24 15:03:52;;;;;;;0.30;0.30;;;10.80;1.00;;;;;;6223609;23;20232;-89
2023/04/24 15:10:08;;;;;;;0.90;0.40;;;11.90;1.00;;;;;;6127159;23;20579;-92
2023/04/24 15:12:34;;;;;;;0.90;0.63;;;10.80;1.00;;;;;;6152402;23;20178;-92
2023/04/24 15:15:00;;;;;;;0.53;0.30;;;11.40;1.00;;;;;;6171082;23;20186;-90
2023/04/24 15:17:51;;;;;;;0.40;0.40;;;9.90;1.00;;;;;;6195085;23;20162;-90
2023/04/24 15:20:19;;;;;;;1.77;0.70;;;10.40;1.00;;;;;;6177324;23;20296;-90
2023/04/24 15:23:20;;;;;;;0.60;0.60;;;10.70;1.00;;;;;;6186897;23;20213;-89
2023/04/24 15:29:25;;;;;;;0.47;0.47;;;10.70;1.00;;;;;;6081078;23;20156;-88
2023/04/24 15:31:50;;;;;;;1.07;0.60;;;11.20;1.00;;;;;;6088393;23;20222;-86
2023/04/24 15:34:16;;;;;;;0.80;0.60;;;10.80;1.00;;;;;;6116217;23;20209;-91
2023/04/24 15:36:41;;;;;;;0.50;0.50;;;11.90;1.00;;;;;;6148934;23;20169;-89
2023/04/24 15:39:11;;;;;;;0.70;0.60;;;11.60;1.00;;;;;;6150687;23;20186;-90
2023/04/24 15:41:41;;;;;;;0.97;0.60;;;11.30;1.00;;;;;;6150406;23;20210;-90
2023/04/24 15:44:06;;;;;;;1.23;1.13;;;11.10;1.00;;;;;;6153573;23;20205;-90
2023/04/24 15:46:35;;;;;;;1.80;0.90;;;11.30;1.00;;;;;;6153766;23;20393;-88
2023/04/24 15:49:00;;;;;;;1.07;1.07;;;11.50;1.00;;;;;;6153835;23;20234;-89
2023/04/24 15:51:26;;;;;;;1.33;1.10;;;10.50;1.00;;;;;;6152554;23;20179;-89
2023/04/24 15:53:52;;;;;;;1.50;1.40;;;10.30;1.00;;;;;;6152587;23;20155;-89
2023/04/24 15:56:18;;;;;;;1.40;1.00;;;10.20;1.00;;;;;;6151737;23;20167;-89
2023/04/24 15:58:45;;;;;;;1.37;1.27;;;11.30;1.00;;;;;;6151193;23;20159;-87
2023/04/24 16:01:11;;;;;;;1.83;1.20;;;9.90;1.00;;;;;;6146780;23;20634;-88
2023/04/24 16:03:36;;;;;;;1.43;1.20;;;10.40;1.00;;;;;;6148970;23;20206;-89
2023/04/24 16:06:05;;;;;;;2.93;2.00;;;10.40;1.00;;;;;;6150424;23;20202;-89
2023/04/24 16:08:31;;;;;;;1.63;1.53;;;10.40;1.00;;;;;;6146803;23;20166;-90